Time;durP1;ratioP1;P1;durP2;ratioP2;P2;SDS_P1;SDS_P2;PMS_P1;PMS_P2;Temp;Humidity;BMP_temperature;BMP_pressure;BME280_temperature;BME280_humidity;BME280_pressure;Samples;Min_cycle;Max_cycle;Signal;HPM_P1;HPM_P2
2022/08/03 00:01:02;;;;;;;16.00;7.13;;;;;;;-144.47;53.81;53187.78;5018005;28;20034;-88
2022/08/03 00:03:35;;;;;;;15.27;6.80;;;;;;;-144.47;53.96;53189.78;5010372;28;20042;-89
2022/08/03 00:06:11;;;;;;;;;;;;;;;;;;;;;
2022/08/03 00:08:37;;;;;;;13.75;7.10;;;;;;;-144.47;54.10;53213.63;5012254;28;20413;-89
2022/08/03 00:11:03;;;;;;;16.42;6.97;;;;;;;-144.47;54.53;53191.78;5013821;28;20121;-89
2022/08/03 00:13:31;;;;;;;12.50;6.25;;;;;;;-144.47;54.70;53229.50;5033619;28;20035;-89
2022/08/03 00:16:00;;;;;;;13.25;6.82;;;;;;;-144.47;54.85;53179.84;5036776;28;20079;-89
2022/08/03 00:18:25;;;;;;;17.60;8.30;;;;;;;-144.47;55.20;53183.81;5036906;28;20033;-89
2022/08/03 00:20:51;;;;;;;14.40;5.72;;;;;;;-144.47;55.50;53209.66;5022919;28;20079;-89
2022/08/03 00:23:16;;;;;;;13.95;6.05;;;;;;;-144.47;56.01;53233.47;5027929;28;20030;-89
2022/08/03 00:25:42;;;;;;;14.30;5.68;;;;;;;-144.47;56.20;53217.59;5016688;28;20025;-88
2022/08/03 00:28:08;;;;;;;14.43;7.32;;;;;;;-144.47;56.40;53217.59;5016559;28;20100;-89
2022/08/03 00:30:34;;;;;;;10.85;5.78;;;;;;;-144.47;56.70;53227.53;5019058;28;20034;-89
2022/08/03 00:33:02;;;;;;;10.48;5.40;;;;;;;-144.47;56.71;53203.69;5015075;28;20033;-90
2022/08/03 00:35:28;;;;;;;11.07;4.78;;;;;;;-144.47;56.64;53203.69;5016352;28;20512;-89
2022/08/03 00:37:58;;;;;;;11.18;5.40;;;;;;;-144.47;57.09;53207.66;5023255;28;20029;-89
2022/08/03 00:40:24;;;;;;;13.23;5.90;;;;;;;-144.47;57.36;53237.44;5017984;28;20059;-89
2022/08/03 00:42:55;;;;;;;11.02;5.20;;;;;;;-144.47;57.71;53209.66;5015549;28;20029;-89
2022/08/03 00:45:28;;;;;;;8.25;4.75;;;;;;;-144.47;57.86;53209.66;5014082;28;20087;-90
2022/08/03 00:48:00;;;;;;;12.90;5.10;;;;;;;-144.47;58.19;53239.44;5016269;28;20026;-90
2022/08/03 00:50:30;;;;;;;10.05;4.82;;;;;;;-144.47;58.23;53215.59;5017560;28;20033;-89
2022/08/03 00:52:59;;;;;;;12.52;4.95;;;;;;;-144.47;58.68;53167.94;5016206;28;20041;-90
2022/08/03 00:55:27;;;;;;;10.48;4.75;;;;;;;-144.47;58.84;53251.34;5015109;28;20037;-90
2022/08/03 00:57:56;;;;;;;10.70;5.05;;;;;;;-144.47;59.32;53225.53;5014573;28;20029;-89
2022/08/03 01:00:26;;;;;;;14.02;4.85;;;;;;;-144.47;60.04;53191.78;5015883;28;20035;-89
2022/08/03 01:02:52;;;;;;;8.30;4.82;;;;;;;-144.47;60.30;53197.72;5016795;28;20026;-88
2022/08/03 01:05:19;;;;;;;10.27;5.15;;;;;;;-144.47;60.53;53235.47;5020049;28;20089;-90
2022/08/03 01:08:23;;;;;;;10.63;4.97;;;;;;;-144.47;60.86;53225.53;5016421;28;20034;-89
2022/08/03 01:11:23;;;;;;;15.85;5.57;;;;;;;-144.47;61.22;53191.78;5031459;28;20021;-88
2022/08/03 01:14:38;;;;;;;15.30;5.57;;;;;;;-144.47;61.62;53223.56;5024234;28;20034;-89
2022/08/03 01:17:24;;;;;;;15.05;6.03;;;;;;;-144.47;61.47;53249.38;4981373;28;20026;-89
2022/08/03 01:20:01;;;;;;;10.00;5.45;;;;;;;-144.47;61.88;53231.50;4984961;28;20038;-88
2022/08/03 01:22:57;;;;;;;10.80;5.45;;;;;;;-144.47;62.23;53227.53;4958913;28;20026;-89
2022/08/03 01:25:59;;;;;;;9.48;4.95;;;;;;;-144.47;62.21;53229.50;4974919;28;20038;-89
2022/08/03 01:28:58;;;;;;;11.55;5.10;;;;;;;-144.47;62.38;53249.38;4974723;28;20051;-89
2022/08/03 01:31:53;;;;;;;13.43;5.03;;;;;;;-144.47;62.59;53197.72;4929767;28;20380;-90
2022/08/03 01:34:22;;;;;;;12.25;4.65;;;;;;;-144.47;62.89;53245.41;4964377;28;20066;-90
2022/08/03 01:36:55;;;;;;;15.65;5.10;;;;;;;-144.47;62.64;53215.59;4985764;28;20026;-88
2022/08/03 01:39:23;;;;;;;10.02;4.95;;;;;;;-144.47;62.71;53251.34;5007267;28;20026;-90
2022/08/03 01:42:03;;;;;;;14.83;4.77;;;;;;;-144.47;62.91;53227.53;4977656;28;20060;-90
2022/08/03 01:44:30;;;;;;;13.90;5.05;;;;;;;-144.47;62.71;53245.41;4992440;28;20288;-89
2022/08/03 01:47:15;;;;;;;10.52;4.82;;;;;;;-144.47;63.28;53181.84;4995694;28;20034;-90
2022/08/03 01:49:44;;;;;;;13.73;5.18;;;;;;;-144.47;63.04;53233.47;4996460;28;20128;-89
2022/08/03 01:52:11;;;;;;;13.55;4.68;;;;;;;-144.47;63.18;53253.34;5014042;28;20034;-90
2022/08/03 01:54:43;;;;;;;14.25;4.43;;;;;;;-144.47;63.26;53221.56;4996939;28;20224;-90
2022/08/03 01:57:09;;;;;;;10.32;4.85;;;;;;;-144.47;63.26;53269.22;5012856;28;20358;-90
2022/08/03 01:59:37;;;;;;;14.02;5.28;;;;;;;-144.47;63.45;53267.25;5014017;28;20026;-90
2022/08/03 02:02:04;;;;;;;12.55;4.60;;;;;;;-144.47;63.24;53239.44;5013157;28;20105;-90
2022/08/03 02:04:37;;;;;;;18.23;5.10;;;;;;;-144.47;63.28;53237.44;5012916;28;20041;-89
2022/08/03 02:07:03;;;;;;;10.40;4.38;;;;;;;-144.47;63.40;53237.44;5012492;28;20061;-89
2022/08/03 02:09:30;;;;;;;8.40;4.20;;;;;;;-144.47;63.40;53233.47;5029148;28;20126;-90
2022/08/03 02:12:07;;;;;;;12.48;4.90;;;;;;;-144.47;63.55;53205.66;5013791;28;20467;-90
2022/08/03 02:14:38;;;;;;;11.33;5.13;;;;;;;-144.47;63.63;53199.72;5017717;28;20117;-90
2022/08/03 02:17:06;;;;;;;15.23;5.57;;;;;;;-144.47;63.63;53187.78;5012580;28;20370;-90
2022/08/03 02:19:33;;;;;;;9.70;5.60;;;;;;;-144.47;63.15;53233.47;5017252;28;20481;-88
2022/08/03 02:21:59;;;;;;;17.80;5.53;;;;;;;-144.47;62.70;53211.63;5017072;28;20034;-89
2022/08/03 02:24:25;;;;;;;18.10;5.68;;;;;;;-144.47;63.14;53201.69;5030740;28;20052;-89
2022/08/03 02:26:56;;;;;;;17.95;5.55;;;;;;;-144.47;63.25;53239.44;5015311;28;20553;-89
2022/08/03 02:29:25;;;;;;;13.55;5.95;;;;;;;-144.47;63.48;53247.38;5020549;28;20036;-89
2022/08/03 02:31:56;;;;;;;18.70;5.00;;;;;;;-144.47;63.54;53241.44;5022176;28;20104;-88
2022/08/03 02:34:26;;;;;;;15.40;5.78;;;;;;;-144.47;63.66;53261.28;5016199;28;20022;-89
2022/08/03 02:37:01;;;;;;;21.52;6.03;;;;;;;-144.47;63.78;53233.47;5012853;28;20076;-89
2022/08/03 02:39:32;;;;;;;16.15;5.30;;;;;;;-144.47;64.02;53251.34;5014616;28;20018;-89
2022/08/03 02:42:07;;;;;;;10.52;5.00;;;;;;;-144.47;64.54;53201.69;5013672;28;20025;-89
2022/08/03 02:44:40;;;;;;;13.82;5.43;;;;;;;-144.47;64.52;53241.44;5012001;28;20037;-88
2022/08/03 02:47:11;;;;;;;14.73;5.25;;;;;;;-144.47;64.80;53225.53;5013728;28;20029;-88
2022/08/03 02:49:42;;;;;;;14.38;5.22;;;;;;;-144.47;64.88;53245.41;5013938;28;20050;-88
2022/08/03 02:52:14;;;;;;;20.70;6.00;;;;;;;-144.47;65.19;53273.22;5014866;28;20076;-88
2022/08/03 02:55:04;;;;;;;14.60;5.93;;;;;;;-144.47;65.45;53233.47;5038545;28;20049;-88
2022/08/03 02:57:33;;;;;;;13.40;5.63;;;;;;;-144.47;65.37;53243.41;5015556;28;20022;-88
2022/08/03 03:00:00;;;;;;;13.48;5.32;;;;;;;-144.47;65.62;53243.41;5032906;28;20030;-90
2022/08/03 03:02:27;;;;;;;12.50;5.28;;;;;;;-144.47;65.64;53245.41;5036733;28;20040;-87
2022/08/03 03:04:55;;;;;;;21.60;5.90;;;;;;;-144.47;65.59;53221.56;5034739;28;20408;-89
2022/08/03 03:07:26;;;;;;;15.40;7.70;;;;;;;-144.47;65.81;53271.22;5023714;28;20061;-90
2022/08/03 03:09:54;;;;;;;12.57;5.78;;;;;;;-144.47;65.92;53253.34;5017021;28;20037;-89
2022/08/03 03:12:20;;;;;;;16.27;6.00;;;;;;;-144.47;65.96;53243.41;5004357;28;20081;-89
2022/08/03 03:14:49;;;;;;;14.05;5.35;;;;;;;-144.47;65.99;53251.34;5021927;28;20029;-90
2022/08/03 03:17:16;;;;;;;14.60;5.47;;;;;;;-144.47;65.69;53253.34;5013149;28;20492;-89
2022/08/03 03:19:44;;;;;;;8.43;5.25;;;;;;;-144.47;66.30;53241.44;5015594;28;20025;-90
2022/08/03 03:22:14;;;;;;;20.48;5.00;;;;;;;-144.47;66.14;53243.41;5013766;28;20033;-88
2022/08/03 03:24:45;;;;;;;17.60;5.55;;;;;;;-144.47;66.14;53253.34;5013975;28;20040;-88
2022/08/03 03:27:16;;;;;;;15.85;5.82;;;;;;;-144.47;66.20;53241.44;5014273;28;20087;-89
2022/08/03 03:29:43;;;;;;;24.60;8.88;;;;;;;-144.47;66.03;53241.44;5013420;28;20105;-89
2022/08/03 03:32:28;;;;;;;;;;;;;;;;;;;;;
2022/08/03 03:35:05;;;;;;;18.13;6.32;;;;;;;-144.47;66.15;53239.44;5018700;28;20124;-90
2022/08/03 03:37:31;;;;;;;12.65;5.55;;;;;;;-144.47;66.03;53233.47;5023118;28;20084;-88
2022/08/03 03:39:56;;;;;;;18.33;6.50;;;;;;;-144.47;66.11;53243.41;5021595;28;20476;-89
2022/08/03 03:42:24;;;;;;;12.57;5.47;;;;;;;-144.47;65.79;53245.41;5043217;28;20041;-86
2022/08/03 03:44:52;;;;;;;15.52;5.70;;;;;;;-144.47;65.66;53267.25;5032880;28;20124;-88
2022/08/03 03:47:18;;;;;;;13.53;4.97;;;;;;;-144.47;65.48;53197.72;5026971;28;20038;-89
2022/08/03 03:49:56;;;;;;;22.63;7.50;;;;;;;-144.47;65.59;53255.34;5020356;28;20033;-89
2022/08/03 03:52:22;;;;;;;17.20;5.30;;;;;;;-144.47;65.59;53271.22;5018080;28;20084;-90
2022/08/03 03:54:52;;;;;;;13.77;5.13;;;;;;;-144.47;65.41;53273.22;5019888;28;20251;-89
2022/08/03 03:57:24;;;;;;;16.60;5.10;;;;;;;-144.47;65.18;53247.38;5016630;28;20034;-90
2022/08/03 03:59:57;;;;;;;15.90;5.35;;;;;;;-144.47;65.46;53233.47;5017517;28;20469;-89
2022/08/03 04:02:36;;;;;;;11.27;5.40;;;;;;;-144.47;65.44;53265.25;5016416;28;20099;-90
2022/08/03 04:11:13;;;;;;;16.35;4.75;;;;;;;-144.47;65.04;53217.59;5038004;28;20433;-89
2022/08/03 04:13:54;;;;;;;10.63;4.82;;;;;;;-144.47;65.00;53251.34;5030266;28;20033;-89
2022/08/03 04:16:24;;;;;;;18.02;6.03;;;;;;;-144.47;65.08;53237.44;5017823;28;20029;-90
2022/08/03 04:19:06;;;;;;;13.30;5.05;;;;;;;-144.47;64.90;53235.47;5020327;28;20092;-88
2022/08/03 04:21:42;;;;;;;16.20;5.20;;;;;;;-144.47;64.62;53257.31;5018430;28;20117;-87
2022/08/03 04:24:11;;;;;;;14.90;6.00;;;;;;;-144.47;64.42;53279.16;5017278;28;20017;-89
2022/08/03 04:26:39;;;;;;;11.30;4.50;;;;;;;-144.47;64.64;53203.69;5032961;28;20056;-90
2022/08/03 04:29:08;;;;;;;21.90;6.13;;;;;;;-144.47;63.92;53261.28;5017064;28;20052;-89
2022/08/03 04:31:35;;;;;;;16.00;5.15;;;;;;;-144.47;63.30;53287.13;5016051;28;20041;-90
2022/08/03 04:34:12;;;;;;;21.27;5.45;;;;;;;-144.47;62.61;53287.13;5017626;28;20028;-89
2022/08/03 04:36:54;;;;;;;16.08;9.05;;;;;;;-144.47;62.68;53245.41;5002896;28;20134;-88
2022/08/03 04:39:25;;;;;;;16.98;5.90;;;;;;;-144.47;62.46;53273.22;4993157;28;20041;-87
2022/08/03 04:41:54;;;;;;;13.32;5.10;;;;;;;-144.47;62.17;53261.28;5016168;28;20120;-88
2022/08/03 04:44:25;;;;;;;20.23;5.32;;;;;;;-144.47;61.80;53221.56;5016824;28;20052;-88
2022/08/03 04:46:55;;;;;;;12.23;5.07;;;;;;;-144.47;61.54;53237.44;5015047;28;20026;-88
2022/08/03 04:49:24;;;;;;;14.88;5.32;;;;;;;-144.47;61.28;53245.41;5016991;28;20391;-88
2022/08/03 04:51:52;;;;;;;11.75;4.70;;;;;;;-144.47;60.95;53241.44;5017965;28;20042;-89
2022/08/03 04:54:28;;;;;;;13.13;4.68;;;;;;;-144.47;60.72;53269.22;5017829;28;20033;-87
2022/08/03 04:56:59;;;;;;;13.88;4.45;;;;;;;-144.47;60.61;53227.53;5033570;28;20025;-89
2022/08/03 04:59:36;;;;;;;23.63;6.43;;;;;;;-144.47;60.55;53211.63;5034586;28;20422;-88
2022/08/03 05:02:05;;;;;;;12.88;5.60;;;;;;;-144.47;60.57;53265.25;5031404;28;20029;-89
2022/08/03 05:04:34;;;;;;;19.63;4.88;;;;;;;-144.47;60.67;53251.34;5020695;28;20022;-90
2022/08/03 05:07:11;;;;;;;21.10;5.30;;;;;;;-144.47;60.31;53195.75;5024226;28;20026;-88
2022/08/03 05:09:37;;;;;;;12.90;5.32;;;;;;;-144.47;59.74;53237.44;5022655;28;20021;-87
2022/08/03 05:12:05;;;;;;;17.05;6.18;;;;;;;-144.47;59.81;53207.66;5023611;28;20045;-87
2022/08/03 05:14:36;;;;;;;11.88;4.47;;;;;;;-144.47;59.38;53237.44;5025478;28;20106;-86
2022/08/03 05:17:03;;;;;;;29.88;6.30;;;;;;;-144.47;59.31;53225.53;5024981;28;20101;-86
2022/08/03 05:19:35;;;;;;;14.68;5.38;;;;;;;-144.47;58.88;53195.75;5024999;28;20026;-87
2022/08/03 05:22:03;;;;;;;21.85;5.30;;;;;;;-144.47;57.61;53221.56;5022789;28;20037;-89
2022/08/03 05:24:31;;;;;;;18.00;5.30;;;;;;;-144.47;57.19;53211.63;5023183;28;20100;-88
2022/08/03 05:27:11;;;;;;;13.65;4.75;;;;;;;-144.47;57.23;53237.44;5008879;28;20038;-89
2022/08/03 05:29:44;;;;;;;19.57;5.10;;;;;;;-144.47;57.09;53205.66;4998096;28;20177;-89
2022/08/03 05:32:11;;;;;;;16.38;5.00;;;;;;;-144.47;56.74;53225.53;4999929;28;20041;-88
2022/08/03 05:34:42;;;;;;;13.60;4.53;;;;;;;-144.47;56.22;53217.59;5014556;28;20061;-88
2022/08/03 05:37:09;;;;;;;12.73;4.35;;;;;;;-144.47;55.02;53245.41;5000091;28;20030;-87
2022/08/03 05:39:38;;;;;;;16.15;5.00;;;;;;;-144.47;54.47;53213.63;5009013;28;20025;-88
2022/08/03 05:42:03;;;;;;;16.45;4.68;;;;;;;-144.47;54.00;53183.81;5021675;28;20034;-88
2022/08/03 05:44:30;;;;;;;24.90;5.13;;;;;;;-144.47;53.92;53245.41;5035806;28;20029;-89
2022/08/03 05:47:00;;;;;;;17.30;4.00;;;;;;;-144.47;53.81;53231.50;5062922;28;20052;-90
2022/08/03 05:49:26;;;;;;;17.05;5.13;;;;;;;-144.47;53.37;53205.66;5051681;28;20030;-89
2022/08/03 05:52:00;;;;;;;21.67;5.05;;;;;;;-144.47;53.31;53197.72;5035827;28;20030;-87
2022/08/03 05:54:28;;;;;;;9.80;4.07;;;;;;;-144.47;53.15;53215.59;5033896;28;20033;-88
2022/08/03 05:56:59;;;;;;;22.25;4.72;;;;;;;-144.47;52.78;53221.56;5028934;28;20032;-88
2022/08/03 05:59:29;;;;;;;9.65;3.83;;;;;;;-144.47;52.77;53201.69;5012666;28;20097;-90
2022/08/03 06:01:59;;;;;;;16.52;4.07;;;;;;;-144.47;52.35;53209.66;5013439;28;20128;-89
2022/08/03 06:04:26;;;;;;;15.30;3.75;;;;;;;-144.47;52.23;53223.56;5028463;28;20041;-89
2022/08/03 06:06:55;;;;;;;20.67;3.85;;;;;;;-144.47;51.97;53160.00;5024144;28;20067;-88
2022/08/03 06:09:21;;;;;;;10.70;4.03;;;;;;;-144.47;52.00;53189.78;5021853;28;20088;-90
2022/08/03 06:11:48;;;;;;;16.90;3.88;;;;;;;-144.47;50.69;53195.75;5022852;28;20032;-89
2022/08/03 06:14:17;;;;;;;12.68;3.60;;;;;;;-144.47;50.83;53167.94;5020783;28;20038;-89
2022/08/03 06:16:45;;;;;;;12.48;3.75;;;;;;;-144.47;50.86;53211.63;5030066;28;20060;-89
2022/08/03 06:19:11;;;;;;;11.77;3.17;;;;;;;-144.47;50.44;53177.88;5018562;28;20026;-89
2022/08/03 06:21:37;;;;;;;14.45;4.40;;;;;;;-144.47;50.26;53179.84;5018846;28;20041;-89
2022/08/03 06:24:05;;;;;;;18.42;4.75;;;;;;;-144.47;49.19;53203.69;5028885;28;20346;-88
2022/08/03 06:26:43;;;;;;;17.05;3.40;;;;;;;-144.47;49.28;53201.69;5036007;28;20037;-90
2022/08/03 06:36:40;;;;;;;8.98;3.42;;;;;;;-144.47;48.20;53158.00;4922279;29;20131;-91
2022/08/03 06:40:07;;;;;;;;;;;;;;;;;;;;;
2022/08/03 06:47:19;;;;;;;7.20;2.30;;;;;;;-144.47;45.19;53158.00;4864467;29;20040;-91
2022/08/03 06:50:21;;;;;;;12.50;2.53;;;;;;;-144.47;45.13;53181.84;4865635;29;20052;-93
2022/08/03 06:53:06;;;;;;;;;;;;;;;;;;;;;
2022/08/03 07:09:30;;;;;;;6.90;2.20;;;;;;;-144.47;43.07;53138.13;4808298;29;20063;-92
2022/08/03 07:12:18;;;;;;;8.13;2.40;;;;;;;-144.47;42.79;53181.84;4859615;29;20042;-93
2022/08/03 07:14:47;;;;;;;;;;;;;;;-144.47;43.14;53114.31;4848967;29;20052;-92
2022/08/03 07:17:22;;;;;;;11.32;3.30;;;;;;;-144.47;43.34;53144.09;4853060;29;19924;-91
2022/08/03 07:20:08;;;;;;;7.53;2.40;;;;;;;-144.47;43.19;53122.25;4879893;29;20120;-90
2022/08/03 07:22:34;;;;;;;13.85;2.33;;;;;;;-144.47;42.92;53158.00;5000998;22;20038;-72
2022/08/03 07:25:00;;;;;;;7.57;2.33;;;;;;;-144.47;42.33;53161.97;5018096;28;20141;-73
2022/08/03 07:27:27;;;;;;;6.82;2.15;;;;;;;-144.47;42.01;53126.22;5039607;28;20025;-72
2022/08/03 07:29:53;;;;;;;4.55;2.13;;;;;;;-144.47;41.72;53128.22;5031467;28;20036;-72
2022/08/03 07:32:18;;;;;;;6.90;1.92;;;;;;;-144.47;41.72;53110.31;5032491;28;20086;-73
2022/08/03 07:34:43;;;;;;;4.38;1.90;;;;;;;-144.47;41.30;53136.16;5075276;22;20037;-66
2022/08/03 07:37:09;;;;;;;11.70;2.30;;;;;;;-144.47;41.43;53140.13;5084307;28;20648;-71
2022/08/03 07:39:34;;;;;;;5.78;1.92;;;;;;;-144.47;41.23;53116.28;5079751;28;20025;-71
2022/08/03 07:41:59;;;;;;;18.85;3.08;;;;;;;-144.47;41.18;53112.31;5085005;28;20465;-67
2022/08/03 07:44:25;;;;;;;10.10;2.38;;;;;;;-144.47;41.60;53114.31;5052573;28;20144;-66
2022/08/03 07:46:50;;;;;;;9.77;2.38;;;;;;;-144.47;41.66;53114.31;5062967;28;20439;-67
2022/08/03 07:49:16;;;;;;;12.77;2.45;;;;;;;-144.47;41.14;53130.19;5061993;28;20359;-67
2022/08/03 07:51:41;;;;;;;11.10;2.10;;;;;;;-144.47;41.15;53100.41;5067606;28;20027;-67
2022/08/03 07:54:08;;;;;;;8.20;2.45;;;;;;;-144.47;41.63;53116.28;5068041;28;20028;-68
2022/08/03 07:56:34;;;;;;;8.65;2.20;;;;;;;-144.47;41.48;53086.50;5065565;28;20025;-67
2022/08/03 07:59:01;;;;;;;12.18;2.72;;;;;;;-144.47;41.71;53110.31;5034414;28;20367;-65
2022/08/03 08:01:27;;;;;;;10.25;2.65;;;;;;;-144.47;41.20;53086.50;5069625;28;20054;-67
2022/08/03 08:03:53;;;;;;;5.32;2.25;;;;;;;-144.47;40.98;53120.25;5049263;28;20401;-70
2022/08/03 08:06:18;;;;;;;12.35;2.42;;;;;;;-144.47;40.48;53160.00;5066890;28;20028;-68
2022/08/03 08:08:44;;;;;;;19.38;2.88;;;;;;;-144.47;40.43;53086.50;5047219;28;20037;-69
2022/08/03 08:11:09;;;;;;;11.52;2.60;;;;;;;-144.47;40.40;53134.16;5052159;28;20028;-69
2022/08/03 08:13:36;;;;;;;16.13;3.22;;;;;;;-144.47;41.21;53146.09;5052932;28;20021;-68
2022/08/03 08:16:02;;;;;;;16.25;5.60;;;;;;;-144.47;39.83;53098.41;5069200;28;20103;-70
2022/08/03 08:18:28;;;;;;;9.75;3.50;;;;;;;-144.47;39.62;53108.34;5041918;28;20111;-67
2022/08/03 08:20:54;;;;;;;11.90;3.30;;;;;;;-144.47;39.64;53100.41;5062685;28;20037;-67
2022/08/03 08:23:23;;;;;;;14.82;2.90;;;;;;;-144.47;39.03;53078.53;5066476;28;20520;-69
2022/08/03 08:25:50;;;;;;;12.50;2.70;;;;;;;-144.47;38.12;53092.44;5068860;28;20091;-68
2022/08/03 08:28:20;;;;;;;10.00;2.00;;;;;;;-144.47;37.50;53060.66;5068102;28;20128;-65
2022/08/03 08:30:46;;;;;;;10.38;2.50;;;;;;;-144.47;37.92;53084.50;5068200;28;20107;-68
2022/08/03 08:33:13;;;;;;;9.60;2.70;;;;;;;-144.47;38.30;53106.34;5069456;28;20087;-69
2022/08/03 08:35:38;;;;;;;18.88;3.30;;;;;;;-144.47;37.87;53142.09;5070952;28;20032;-64
2022/08/03 08:38:03;;;;;;;6.25;2.15;;;;;;;-144.47;37.62;53084.50;5064165;28;20035;-68
2022/08/03 08:40:29;;;;;;;9.10;2.25;;;;;;;-144.47;37.10;53100.41;5064927;28;20119;-68
2022/08/03 08:42:55;;;;;;;4.95;1.80;;;;;;;-144.47;37.02;53116.28;5056808;28;20024;-68
2022/08/03 08:45:20;;;;;;;10.75;2.20;;;;;;;-144.47;37.05;53086.50;5070603;28;20028;-69
2022/08/03 08:47:48;;;;;;;5.88;1.98;;;;;;;-144.47;36.66;53074.56;5033536;28;20028;-69
2022/08/03 08:50:18;;;;;;;12.73;2.30;;;;;;;-144.47;36.41;53094.44;5066249;28;20028;-68
2022/08/03 08:52:46;;;;;;;5.63;1.90;;;;;;;-144.47;35.68;53098.41;5060555;28;20028;-69
2022/08/03 08:55:13;;;;;;;6.75;2.00;;;;;;;-144.47;35.83;53046.75;5059802;28;20021;-69
2022/08/03 08:57:54;;;;;;;9.55;2.38;;;;;;;-144.47;35.43;53066.63;5042668;28;20371;-69
2022/08/03 09:00:20;;;;;;;4.20;1.70;;;;;;;-144.47;35.16;53094.44;5071503;28;20016;-69
2022/08/03 09:02:45;;;;;;;7.35;2.10;;;;;;;-144.47;34.78;53054.72;5067662;28;20025;-71
2022/08/03 09:05:13;;;;;;;10.35;2.42;;;;;;;-144.47;35.05;53086.50;5069027;28;20024;-69
2022/08/03 09:07:40;;;;;;;11.60;2.78;;;;;;;-144.47;34.96;53092.44;5057004;28;20032;-69
2022/08/03 09:10:07;;;;;;;9.43;1.95;;;;;;;-144.47;34.39;53056.69;5074094;28;20020;-69
2022/08/03 09:12:57;;;;;;;8.70;2.50;;;;;;;-144.47;34.42;53102.38;5045626;28;20569;-70
2022/08/03 09:15:32;;;;;;;5.50;2.03;;;;;;;-144.47;34.19;53088.47;5088427;28;20036;-67
2022/08/03 09:18:02;;;;;;;9.05;2.10;;;;;;;-144.47;34.27;53076.56;5077895;28;20028;-68
2022/08/03 09:20:30;;;;;;;5.93;1.90;;;;;;;-144.47;34.27;53050.75;5045391;28;20112;-71
2022/08/03 09:23:08;;;;;;;6.82;2.28;;;;;;;-144.47;33.38;53082.53;5073439;28;20060;-65
2022/08/03 09:25:37;;;;;;;10.65;2.13;;;;;;;-144.47;33.22;53090.47;5073276;28;20044;-66
2022/08/03 09:28:10;;;;;;;8.40;2.03;;;;;;;-144.47;32.65;53056.69;5090306;28;20027;-67
2022/08/03 09:30:44;;;;;;;3.92;1.50;;;;;;;-144.47;32.35;53042.78;5091104;28;20411;-66
2022/08/03 09:33:14;;;;;;;9.88;2.13;;;;;;;-144.47;31.93;53024.91;5085439;28;20016;-64
2022/08/03 09:35:46;;;;;;;6.07;2.28;;;;;;;-144.47;32.10;53082.53;5069709;28;20029;-66
2022/08/03 09:38:13;;;;;;;9.10;2.10;;;;;;;-144.47;32.24;53084.50;5036136;28;20553;-64
2022/08/03 09:40:39;;;;;;;4.88;1.73;;;;;;;-144.47;31.72;53062.66;5070679;28;20024;-67
2022/08/03 09:43:07;;;;;;;5.10;2.00;;;;;;;-144.47;31.95;53046.75;5070766;28;20027;-67
2022/08/03 09:45:43;;;;;;;5.90;1.80;;;;;;;-144.47;31.94;53028.88;5069563;28;20028;-65
2022/08/03 09:48:32;;;;;;;5.65;2.33;;;;;;;-144.47;32.03;53062.66;5069517;28;20112;-65
2022/08/03 09:51:00;;;;;;;4.68;1.80;;;;;;;-144.47;31.98;53058.69;5069740;28;20081;-65
2022/08/03 09:53:29;;;;;;;10.23;2.40;;;;;;;-144.47;31.86;53024.91;5052545;28;20035;-67
2022/08/03 09:56:00;;;;;;;5.43;1.67;;;;;;;-144.47;31.83;53058.69;5071395;28;20021;-64
2022/08/03 09:58:29;;;;;;;3.83;1.77;;;;;;;-144.47;31.75;53040.81;5055179;28;20032;-65
2022/08/03 10:01:04;;;;;;;7.05;2.22;;;;;;;-144.47;31.57;53040.81;5072966;28;20024;-67
2022/08/03 10:03:33;;;;;;;8.75;2.10;;;;;;;-144.47;31.63;53018.97;5072213;28;20102;-65
2022/08/03 10:06:14;;;;;;;6.35;1.92;;;;;;;-144.47;31.58;53072.59;5071999;28;20077;-65
2022/08/03 10:08:39;;;;;;;3.90;1.90;;;;;;;-144.47;31.63;53028.88;5081662;28;20036;-67
2022/08/03 10:11:05;;;;;;;4.53;1.95;;;;;;;-144.47;31.37;53022.94;5067391;28;20023;-67
2022/08/03 10:13:31;;;;;;;8.50;2.47;;;;;;;-144.47;31.52;53050.75;5072696;28;20028;-65
2022/08/03 10:15:56;;;;;;;5.47;2.20;;;;;;;-144.47;31.47;53050.75;5090747;28;20246;-66
2022/08/03 10:18:22;;;;;;;7.63;2.50;;;;;;;-144.47;31.15;53050.75;5060658;28;20160;-67
2022/08/03 10:20:52;;;;;;;13.35;2.08;;;;;;;-144.47;31.31;53015.00;5050275;28;20028;-67
2022/08/03 10:23:18;;;;;;;7.60;1.90;;;;;;;-144.47;31.06;53056.69;5054676;28;20398;-67
2022/08/03 10:25:48;;;;;;;5.40;2.10;;;;;;;-144.47;31.06;53030.88;5045176;28;20508;-65
2022/08/03 10:28:17;;;;;;;5.35;1.88;;;;;;;-144.47;31.18;53015.00;5059593;28;20020;-66
2022/08/03 10:30:49;;;;;;;4.00;1.83;;;;;;;-144.47;31.16;53038.81;5052108;28;20279;-64
2022/08/03 10:33:26;;;;;;;7.70;2.03;;;;;;;-144.47;30.66;53040.81;5064962;28;20500;-66
2022/08/03 10:35:55;;;;;;;4.97;1.80;;;;;;;-144.47;30.82;53050.75;5053762;28;20036;-66
2022/08/03 10:38:31;;;;;;;15.88;2.47;;;;;;;-144.47;30.66;53054.72;5066628;28;20490;-65
2022/08/03 10:40:58;;;;;;;13.75;2.13;;;;;;;-144.47;30.61;52991.16;5052270;28;20107;-62
2022/08/03 10:43:36;;;;;;;4.95;2.20;;;;;;;-144.47;30.59;53050.75;5051460;28;20090;-66
2022/08/03 10:46:06;;;;;;;10.90;1.90;;;;;;;-144.47;30.51;53013.00;5068362;28;20035;-65
2022/08/03 10:48:31;;;;;;;4.22;1.67;;;;;;;-144.47;30.44;53038.81;5065931;28;20119;-66
2022/08/03 10:50:57;;;;;;;5.00;1.90;;;;;;;-144.47;30.26;53046.75;5063605;28;20116;-66
2022/08/03 10:53:35;;;;;;;11.27;1.95;;;;;;;-144.47;30.03;53036.84;5036641;28;20021;-65
2022/08/03 10:58:53;;;;;;;6.13;2.22;;;;;;;-144.47;29.92;53007.03;5056109;28;20575;-67
2022/08/03 11:01:52;;;;;;;7.57;1.80;;;;;;;-144.47;29.57;53038.81;5067250;28;20070;-64
2022/08/03 11:04:19;;;;;;;3.95;1.67;;;;;;;-144.47;29.56;53032.88;5069611;28;20035;-64
2022/08/03 11:06:45;;;;;;;5.50;1.67;;;;;;;-144.47;29.45;53038.81;5088860;28;20127;-66
2022/08/03 11:09:17;;;;;;;10.52;1.85;;;;;;;-144.47;29.25;53020.94;5088227;28;20039;-67
2022/08/03 11:11:45;;;;;;;6.35;2.17;;;;;;;-144.47;29.22;52993.13;5090063;28;20058;-67
2022/08/03 11:14:12;;;;;;;9.48;2.53;;;;;;;-144.47;29.02;53005.06;5089836;28;20028;-65
2022/08/03 11:16:40;;;;;;;9.82;1.80;;;;;;;-144.47;28.54;53003.06;5071029;28;20078;-65
2022/08/03 11:19:11;;;;;;;5.65;1.60;;;;;;;-144.47;27.78;52999.09;5070953;28;20528;-64
2022/08/03 11:24:39;;;;;;;4.18;1.70;;;;;;;-144.47;28.21;52959.38;5088758;28;20028;-65
2022/08/03 11:27:20;;;;;;;6.15;1.70;;;;;;;-144.47;27.90;52991.16;5088494;28;20031;-63
2022/08/03 11:30:07;;;;;;;4.78;1.90;;;;;;;-144.47;28.33;52989.16;5089459;28;20024;-63
2022/08/03 11:32:39;;;;;;;5.15;1.60;;;;;;;-144.47;28.19;52947.47;5053950;28;20520;-64
2022/08/03 11:35:25;;;;;;;3.40;1.73;;;;;;;-144.47;27.27;52987.19;5068898;28;20043;-64
2022/08/03 11:37:57;;;;;;;11.80;1.98;;;;;;;-144.47;26.66;52951.44;5067061;28;20109;-64
2022/08/03 11:40:53;;;;;;;7.00;1.58;;;;;;;-144.47;26.29;52971.28;5069183;28;20036;-63
2022/08/03 11:43:24;;;;;;;7.18;1.60;;;;;;;-144.47;25.59;52949.44;5068826;28;20028;-64
2022/08/03 11:46:04;;;;;;;5.90;1.48;;;;;;;-144.47;25.76;52981.22;5068720;28;20167;-63
2022/08/03 11:48:32;;;;;;;4.13;1.90;;;;;;;-144.47;25.72;53007.03;5066636;28;20025;-65
2022/08/03 11:50:59;;;;;;;4.45;1.92;;;;;;;-144.47;25.89;52959.38;5066594;28;20056;-67
2022/08/03 11:53:26;;;;;;;6.78;1.55;;;;;;;-144.47;26.06;52951.44;5063127;28;20032;-66
2022/08/03 11:55:52;;;;;;;6.18;1.40;;;;;;;-144.47;25.84;52991.16;5079608;28;20035;-64
2022/08/03 11:58:20;;;;;;;8.40;1.55;;;;;;;-144.47;26.10;52963.34;5067871;28;20024;-66
2022/08/03 12:00:45;;;;;;;5.43;1.70;;;;;;;-144.47;26.38;52983.22;5050078;28;20068;-67
2022/08/03 12:03:14;;;;;;;4.13;1.50;;;;;;;-144.47;26.76;52989.16;5068581;28;20075;-66
2022/08/03 12:05:48;;;;;;;4.38;1.50;;;;;;;-144.47;26.84;52963.34;5067812;28;20104;-65
2022/08/03 12:08:16;;;;;;;6.57;1.75;;;;;;;-144.47;25.87;52977.25;5066840;28;20082;-66
2022/08/03 12:10:47;;;;;;;7.18;1.60;;;;;;;-144.47;26.22;52985.19;5068320;28;20200;-67
2022/08/03 12:13:12;;;;;;;12.38;1.90;;;;;;;-144.47;25.92;52995.13;5071348;28;20059;-67